createdAt,value
2023-04-05T00:01:03.691Z,348.98
2023-04-05T00:06:10.872Z,349.16
2023-04-05T00:11:18.109Z,349.35
2023-04-05T00:16:25.367Z,349.29
2023-04-05T00:21:32.569Z,349.11
2023-04-05T00:26:39.862Z,349.39
2023-04-05T00:31:47.173Z,349.51
2023-04-05T00:36:54.471Z,350.51
2023-04-05T00:42:01.749Z,350.38
2023-04-05T00:47:08.989Z,350.56
2023-04-05T00:52:16.255Z,350.78
2023-04-05T00:57:23.589Z,351.15
2023-04-05T01:02:31.068Z,351.82
2023-04-05T01:07:38.464Z,352.64
2023-04-05T01:12:45.852Z,352.52
2023-04-05T01:17:53.186Z,352.82
2023-04-05T01:23:10.682Z,353.34
2023-04-05T01:28:13.514Z,353.64
2023-04-05T01:33:25.864Z,353.83
2023-04-05T01:38:45.760Z,354.39
2023-04-05T01:43:50.734Z,354.81
2023-04-05T01:49:01.784Z,354.70
2023-04-05T01:54:10.821Z,354.90
2023-04-05T02:00:12.256Z,354.86
2023-04-05T02:05:07.055Z,355.10
2023-04-05T02:10:13.194Z,355.36
2023-04-05T02:15:25.837Z,355.79
2023-04-05T02:20:38.111Z,356.04
2023-04-05T02:25:48.840Z,356.58
2023-04-05T02:31:38.464Z,356.56
2023-04-05T02:36:55.371Z,356.96
2023-04-05T02:41:59.706Z,356.88
2023-04-05T02:47:07.342Z,357.69
2023-04-05T02:52:16.735Z,357.75
2023-04-05T02:57:24.809Z,357.72
2023-04-05T03:02:35.495Z,357.97
2023-04-05T03:07:44.089Z,358.44
2023-04-05T03:12:54.997Z,359.05
2023-04-05T03:17:59.905Z,359.06
2023-04-05T03:23:07.289Z,358.94
2023-04-05T03:28:14.892Z,359.25
2023-04-05T03:33:25.945Z,359.54
2023-04-05T03:38:33.233Z,359.58
2023-04-05T03:43:40.754Z,360.22
2023-04-05T03:48:48.122Z,360.50
2023-04-05T03:53:55.626Z,360.84
2023-04-05T03:59:38.070Z,361.08
2023-04-05T04:05:21.164Z,361.06
2023-04-05T04:10:31.364Z,360.87
2023-04-05T04:15:46.363Z,360.60
2023-04-05T04:20:54.076Z,360.89
2023-04-05T04:26:01.842Z,360.99
2023-04-05T04:31:28.841Z,361.35
2023-04-05T04:36:35.668Z,360.99
2023-04-05T04:41:49.903Z,360.73
2023-04-05T04:47:07.659Z,360.34
2023-04-05T04:52:16.477Z,360.12
2023-04-05T04:57:33.553Z,359.98
2023-04-05T05:02:40.892Z,359.90
2023-04-05T05:07:58.112Z,359.83
2023-04-05T05:13:10.323Z,359.84
2023-04-05T05:18:17.939Z,359.39
2023-04-05T05:23:25.375Z,359.60
2023-04-05T05:28:39.717Z,359.36
2023-04-05T05:34:05.959Z,359.86
2023-04-05T05:39:25.921Z,359.81
2023-04-05T05:44:32.033Z,359.60
2023-04-05T05:49:40.048Z,359.81
2023-04-05T05:55:06.534Z,359.45
2023-04-05T06:00:14.006Z,359.08
2023-04-05T06:05:24.029Z,359.31
2023-04-05T06:10:30.186Z,359.11
2023-04-05T06:15:53.354Z,359.14
2023-04-05T06:21:05.544Z,359.27
2023-04-05T06:27:01.066Z,358.85
2023-04-05T06:34:27.149Z,358.79
2023-04-05T06:37:42.179Z,358.60
2023-04-05T06:44:33.789Z,358.38
2023-04-05T06:48:40.313Z,358.74
2023-04-05T06:54:39.734Z,359.24
2023-04-05T06:59:07.328Z,359.21
2023-04-05T07:04:50.158Z,359.27
2023-04-05T07:09:57.500Z,359.44
2023-04-05T07:15:25.935Z,358.66
2023-04-05T07:20:48.860Z,358.74
2023-04-05T07:25:56.559Z,358.79
2023-04-05T07:31:08.940Z,358.79
2023-04-05T07:36:24.693Z,358.70
2023-04-05T07:41:34.658Z,358.59
2023-04-05T07:47:21.994Z,358.70
2023-04-05T07:52:36.042Z,359.14
2023-04-05T07:57:55.394Z,358.37
2023-04-05T08:03:35.846Z,358.78
2023-04-05T08:08:49.437Z,358.30
2023-04-05T08:14:36.677Z,358.91
2023-04-05T08:19:59.381Z,359.20
2023-04-05T08:25:43.516Z,358.86
2023-04-05T08:31:01.525Z,359.22
2023-04-05T08:36:11.165Z,359.15
2023-04-05T08:41:58.461Z,359.00
2023-04-05T08:47:41.031Z,358.99
2023-04-05T08:53:29.754Z,358.43
2023-04-05T08:58:44.408Z,358.90
2023-04-05T09:04:00.648Z,359.24
2023-04-05T09:09:01.817Z,359.46
2023-04-05T09:14:44.505Z,358.90
2023-04-05T09:20:02.467Z,359.23
2023-04-05T09:25:06.549Z,359.06
2023-04-05T09:30:13.980Z,359.51
2023-04-05T09:35:21.707Z,359.42
2023-04-05T09:40:38.917Z,359.00
2023-04-05T09:45:46.265Z,359.49
2023-04-05T09:50:56.518Z,359.24
2023-04-05T09:56:16.191Z,359.81
2023-04-05T10:01:23.738Z,358.90
2023-04-05T10:06:31.500Z,358.63
2023-04-05T10:11:39.032Z,358.99
2023-04-05T10:16:46.676Z,359.00
2023-04-05T10:21:54.091Z,358.73
2023-04-05T10:27:01.470Z,358.77
2023-04-05T10:32:08.920Z,359.00
2023-04-05T10:37:16.333Z,359.02
2023-04-05T10:42:23.668Z,359.55
2023-04-05T10:47:31.218Z,359.37
2023-04-05T10:52:38.540Z,359.06
2023-04-05T10:57:45.932Z,359.21
2023-04-05T11:02:53.444Z,359.02
2023-04-05T11:08:00.918Z,359.19
2023-04-05T11:13:08.360Z,359.16
2023-04-05T11:18:16.009Z,359.19
2023-04-05T11:23:26.464Z,360.22
2023-04-05T11:28:33.837Z,360.32
2023-04-05T11:33:41.298Z,360.81
2023-04-05T11:38:48.843Z,360.96
2023-04-05T11:43:56.298Z,360.99
2023-04-05T11:49:03.935Z,361.50
2023-04-05T11:54:11.621Z,361.81
2023-04-05T11:59:19.228Z,362.27
2023-04-05T12:04:32.048Z,362.70
2023-04-05T12:10:14.378Z,363.04
2023-04-05T12:15:21.939Z,363.41
2023-04-05T12:20:47.397Z,363.68
2023-04-05T12:25:49.401Z,363.98
2023-04-05T12:30:56.866Z,364.85
2023-04-05T12:36:10.148Z,365.14
2023-04-05T12:41:52.564Z,364.91
2023-04-05T12:47:12.038Z,365.15
2023-04-05T12:52:19.460Z,365.52
2023-04-05T12:57:26.931Z,365.69
2023-04-05T13:02:34.792Z,366.76
2023-04-05T13:07:45.577Z,367.02
2023-04-05T13:12:53.156Z,367.60
2023-04-05T13:18:00.595Z,367.87
2023-04-05T13:23:08.096Z,367.99
2023-04-05T13:28:50.437Z,368.54
2023-04-05T13:33:58.036Z,368.88
2023-04-05T13:39:41.476Z,369.50
2023-04-05T13:50:11.243Z,369.95
2023-04-05T13:55:18.729Z,370.40
2023-04-05T14:00:35.289Z,370.73
2023-04-05T14:05:53.063Z,371.32
2023-04-05T14:10:58.405Z,371.16
2023-04-05T14:16:05.925Z,371.85
2023-04-05T14:21:13.225Z,371.67
2023-04-05T14:26:20.603Z,371.42
2023-04-05T14:31:31.263Z,371.56
2023-04-05T14:36:38.768Z,372.07
2023-04-05T14:41:46.193Z,371.90
2023-04-05T14:46:53.428Z,371.99
2023-04-05T14:52:00.884Z,372.04
2023-04-05T14:57:18.317Z,372.45
2023-04-05T15:02:37.057Z,372.64
2023-04-05T15:07:56.948Z,372.43
2023-04-05T15:13:39.753Z,372.16
2023-04-05T15:19:37.427Z,372.00
2023-04-05T15:24:45.001Z,372.11
2023-04-05T15:30:01.570Z,372.07
2023-04-05T15:35:15.212Z,372.35
2023-04-05T15:40:26.842Z,372.10
2023-04-05T15:45:34.389Z,371.74
2023-04-05T15:50:42.031Z,371.98
2023-04-05T15:56:29.539Z,371.55
2023-04-05T16:01:39.961Z,371.60
2023-04-05T16:06:52.150Z,371.56
2023-04-05T16:11:59.562Z,371.61
2023-04-05T16:17:07.185Z,371.59
2023-04-05T16:22:14.586Z,371.60
2023-04-05T16:27:22.328Z,371.39
2023-04-05T16:33:04.875Z,370.79
2023-04-05T16:38:33.320Z,370.62
2023-04-05T16:43:25.230Z,370.20
2023-04-05T16:48:32.715Z,369.63
2023-04-05T16:53:49.531Z,369.41
2023-04-05T16:59:07.582Z,369.29
2023-04-05T17:04:13.018Z,369.17
2023-04-05T17:09:26.571Z,369.17
2023-04-05T17:14:41.502Z,369.18
2023-04-05T17:20:43.162Z,369.56
2023-04-05T17:25:01.795Z,369.48
2023-04-05T17:30:09.155Z,369.25
2023-04-05T17:35:16.572Z,368.88
2023-04-05T17:40:24.531Z,368.70
2023-04-05T17:45:32.218Z,368.52
2023-04-05T17:51:15.514Z,368.95
2023-04-05T17:56:44.484Z,368.85
2023-04-05T18:01:43.563Z,368.44
2023-04-05T18:07:05.998Z,368.18
2023-04-05T18:12:13.253Z,367.88
2023-04-05T18:17:20.497Z,367.45
2023-04-05T18:22:27.719Z,367.14
2023-04-05T18:27:35.113Z,366.93
2023-04-05T18:32:42.633Z,365.93
2023-04-05T18:37:49.943Z,365.30
2023-04-05T18:42:57.233Z,364.77
2023-04-05T18:48:04.468Z,364.37
2023-04-05T18:53:11.718Z,363.66
2023-04-05T18:58:19.086Z,363.88
2023-04-05T19:03:27.280Z,363.63
2023-04-05T19:08:34.564Z,362.98
2023-04-05T19:13:41.992Z,362.70
2023-04-05T19:18:49.130Z,362.63
2023-04-05T19:23:56.344Z,362.53
2023-04-05T19:29:03.563Z,362.39
2023-04-05T19:34:10.861Z,361.79
2023-04-05T19:39:18.404Z,362.09
2023-04-05T19:44:25.802Z,362.07
2023-04-05T19:49:33.058Z,361.80
2023-04-05T19:54:40.555Z,361.62
2023-04-05T19:59:47.933Z,361.79
2023-04-05T20:04:55.111Z,361.54
2023-04-05T20:10:02.435Z,361.73
2023-04-05T20:15:09.679Z,361.56
2023-04-05T20:20:16.869Z,361.61
2023-04-05T20:25:24.129Z,362.02
2023-04-05T20:30:31.340Z,361.97
2023-04-05T20:35:38.534Z,361.98
2023-04-05T20:40:45.690Z,362.13
2023-04-05T20:45:53.025Z,362.45
2023-04-05T20:51:00.062Z,362.48
2023-04-05T20:56:07.334Z,362.42
2023-04-05T21:01:14.562Z,362.36
2023-04-05T21:06:21.715Z,361.86
2023-04-05T21:11:28.897Z,361.91
2023-04-05T21:16:36.099Z,361.75
2023-04-05T21:21:43.271Z,361.64
2023-04-05T21:26:50.764Z,361.44
2023-04-05T21:32:34.075Z,361.73
2023-04-05T21:38:16.544Z,362.02
2023-04-05T21:43:25.854Z,362.19
2023-04-05T21:48:39.755Z,362.06
2023-04-05T21:53:47.090Z,361.39
2023-04-05T21:58:54.507Z,360.96
2023-04-05T22:04:01.810Z,360.94
2023-04-05T22:09:09.270Z,360.54
2023-04-05T22:14:16.334Z,360.21
2023-04-05T22:19:23.631Z,359.88
2023-04-05T22:24:30.794Z,359.63
2023-04-05T22:29:37.987Z,359.65
2023-04-05T22:34:45.189Z,359.61
2023-04-05T22:39:52.367Z,360.08
2023-04-05T22:44:59.510Z,359.71
2023-04-05T22:50:06.839Z,359.04
2023-04-05T22:55:13.892Z,358.99
2023-04-05T23:00:21.082Z,359.06
2023-04-05T23:05:28.412Z,358.79
2023-04-05T23:10:35.719Z,358.59
2023-04-05T23:15:43.166Z,359.30
2023-04-05T23:20:52.645Z,359.12
2023-04-05T23:26:10.936Z,359.02
2023-04-05T23:31:18.389Z,359.15
2023-04-05T23:36:29.172Z,358.97
2023-04-05T23:41:36.799Z,359.06
2023-04-05T23:46:47.141Z,358.66
2023-04-05T23:51:56.055Z,358.51
2023-04-05T23:57:12.649Z,359.16
